sensor_id;sensor_type;location;lat;lon;timestamp;pressure;altitude;pressure_sealevel;temperature;humidity
62544;BME280;48597;49.030;1.822;2023-03-25T00:02:17;100066.06;;;20.95;40.48
62544;BME280;48597;49.030;1.822;2023-03-25T00:04:43;100068.94;;;20.95;40.69
62544;BME280;48597;49.030;1.822;2023-03-25T00:07:09;100066.06;;;20.95;40.57
62544;BME280;48597;49.030;1.822;2023-03-25T00:09:35;100079.13;;;20.96;40.61
62544;BME280;48597;49.030;1.822;2023-03-25T00:12:00;100076.25;;;20.96;40.38
62544;BME280;48597;49.030;1.822;2023-03-25T00:14:26;100078.31;;;20.96;40.42
62544;BME280;48597;49.030;1.822;2023-03-25T00:16:51;100083.25;;;20.95;40.29
62544;BME280;48597;49.030;1.822;2023-03-25T00:19:18;100084.84;;;20.96;40.42
62544;BME280;48597;49.030;1.822;2023-03-25T00:21:46;100083.59;;;20.97;40.33
62544;BME280;48597;49.030;1.822;2023-03-25T00:24:15;100089.31;;;20.97;40.43
62544;BME280;48597;49.030;1.822;2023-03-25T00:26:46;100079.13;;;20.96;40.26
62544;BME280;48597;49.030;1.822;2023-03-25T00:29:14;100081.50;;;20.98;40.31
62544;BME280;48597;49.030;1.822;2023-03-25T00:31:41;100087.25;;;20.98;40.35
62544;BME280;48597;49.030;1.822;2023-03-25T00:34:08;100085.19;;;20.98;40.25
62544;BME280;48597;49.030;1.822;2023-03-25T00:36:34;100078.66;;;20.98;40.21
62544;BME280;48597;49.030;1.822;2023-03-25T00:39:06;100083.91;;;20.99;40.37
62544;BME280;48597;49.030;1.822;2023-03-25T00:41:33;100077.38;;;20.99;40.25
62544;BME280;48597;49.030;1.822;2023-03-25T00:44:00;100074.03;;;21.00;40.40
62544;BME280;48597;49.030;1.822;2023-03-25T00:46:30;100079.78;;;21.00;40.50
62544;BME280;48597;49.030;1.822;2023-03-25T00:48:57;100078.50;;;21.01;40.39
62544;BME280;48597;49.030;1.822;2023-03-25T00:51:23;100072.78;;;21.01;40.49
62544;BME280;48597;49.030;1.822;2023-03-25T00:53:59;100075.63;;;21.01;40.38
62544;BME280;48597;49.030;1.822;2023-03-25T00:56:25;100072.28;;;21.03;40.31
62544;BME280;48597;49.030;1.822;2023-03-25T00:58:50;100082.97;;;21.02;40.34
62544;BME280;48597;49.030;1.822;2023-03-25T01:01:27;100072.28;;;21.03;40.47
62544;BME280;48597;49.030;1.822;2023-03-25T01:03:54;100075.94;;;21.03;40.39
62544;BME280;48597;49.030;1.822;2023-03-25T01:06:41;100082.63;;;21.00;40.14
62544;BME280;48597;49.030;1.822;2023-03-25T01:09:12;100077.22;;;21.02;40.14
62544;BME280;48597;49.030;1.822;2023-03-25T01:11:39;100074.66;;;21.04;40.13
62544;BME280;48597;49.030;1.822;2023-03-25T01:14:12;100070.50;;;21.05;40.10
62544;BME280;48597;49.030;1.822;2023-03-25T01:16:39;100067.66;;;21.05;40.33
62544;BME280;48597;49.030;1.822;2023-03-25T01:19:05;100065.09;;;21.08;40.14
62544;BME280;48597;49.030;1.822;2023-03-25T01:21:31;100065.09;;;21.08;40.25
62544;BME280;48597;49.030;1.822;2023-03-25T01:23:59;100066.69;;;21.09;40.20
62544;BME280;48597;49.030;1.822;2023-03-25T01:26:25;100065.91;;;21.08;40.02
62544;BME280;48597;49.030;1.822;2023-03-25T01:28:50;100057.63;;;21.10;40.00
62544;BME280;48597;49.030;1.822;2023-03-25T01:31:16;100051.91;;;21.10;40.24
62544;BME280;48597;49.030;1.822;2023-03-25T01:33:41;100049.03;;;21.10;40.03
62544;BME280;48597;49.030;1.822;2023-03-25T01:36:07;100057.16;;;21.12;40.05
62544;BME280;48597;49.030;1.822;2023-03-25T01:38:34;100058.75;;;21.13;39.99
62544;BME280;48597;49.030;1.822;2023-03-25T01:41:01;100045.69;;;21.12;39.99
62544;BME280;48597;49.030;1.822;2023-03-25T01:43:26;100043.63;;;21.12;40.26
62544;BME280;48597;49.030;1.822;2023-03-25T01:45:51;100038.69;;;21.13;40.16
62544;BME280;48597;49.030;1.822;2023-03-25T01:50:56;100043.47;;;21.16;40.06
62544;BME280;48597;49.030;1.822;2023-03-25T01:53:22;100047.59;;;21.15;40.17
62544;BME280;48597;49.030;1.822;2023-03-25T01:55:48;100047.09;;;21.16;39.91
62544;BME280;48597;49.030;1.822;2023-03-25T01:58:17;100043.47;;;21.16;39.94
62544;BME280;48597;49.030;1.822;2023-03-25T02:00:44;100042.97;;;21.17;39.88
62544;BME280;48597;49.030;1.822;2023-03-25T02:03:12;100031.50;;;21.17;39.91
62544;BME280;48597;49.030;1.822;2023-03-25T02:06:22;100028.19;;;21.19;39.75
62544;BME280;48597;49.030;1.822;2023-03-25T02:08:40;100032.28;;;21.18;39.92
62544;BME280;48597;49.030;1.822;2023-03-25T02:11:09;100032.66;;;21.20;39.94
62544;BME280;48597;49.030;1.822;2023-03-25T02:13:39;100021.97;;;21.20;39.84
62544;BME280;48597;49.030;1.822;2023-03-25T02:16:33;100024.03;;;21.20;39.89
62544;BME280;48597;49.030;1.822;2023-03-25T02:40:34;100013.22;;;21.24;39.51
62544;BME280;48597;49.030;1.822;2023-03-25T02:43:04;100011.16;;;21.24;39.69
62544;BME280;48597;49.030;1.822;2023-03-25T02:45:38;100014.81;;;21.25;39.60
62544;BME280;48597;49.030;1.822;2023-03-25T02:48:11;100014.34;;;21.26;39.51
62544;BME280;48597;49.030;1.822;2023-03-25T02:50:49;100019.59;;;21.28;39.53
62544;BME280;48597;49.030;1.822;2023-03-25T02:53:25;100020.88;;;21.27;39.52
62544;BME280;48597;49.030;1.822;2023-03-25T02:55:52;100004.47;;;21.27;39.60
62544;BME280;48597;49.030;1.822;2023-03-25T02:58:22;100013.06;;;21.27;39.67
62544;BME280;48597;49.030;1.822;2023-03-25T03:00:49;100001.88;;;21.29;39.82
62544;BME280;48597;49.030;1.822;2023-03-25T03:03:16;100012.59;;;21.29;39.39
62544;BME280;48597;49.030;1.822;2023-03-25T03:05:44;100016.22;;;21.29;39.73
62544;BME280;48597;49.030;1.822;2023-03-25T03:08:22;100018.59;;;21.31;39.52
62544;BME280;48597;49.030;1.822;2023-03-25T03:11:01;100014.47;;;21.32;39.48
62544;BME280;48597;49.030;1.822;2023-03-25T03:13:48;100011.91;;;21.34;39.08
62544;BME280;48597;49.030;1.822;2023-03-25T03:22:11;100013.34;;;21.38;39.34
62544;BME280;48597;49.030;1.822;2023-03-25T03:29:56;100021.78;;;21.42;39.17
62544;BME280;48597;49.030;1.822;2023-03-25T03:32:36;100024.13;;;21.44;39.40
62544;BME280;48597;49.030;1.822;2023-03-25T03:35:20;100024.94;;;21.44;39.24
62544;BME280;48597;49.030;1.822;2023-03-25T03:37:51;100025.25;;;21.46;39.48
62544;BME280;48597;49.030;1.822;2023-03-25T03:40:21;100033.38;;;21.48;39.47
62544;BME280;48597;49.030;1.822;2023-03-25T03:43:02;100030.50;;;21.48;39.39
62544;BME280;48597;49.030;1.822;2023-03-25T03:45:39;100034.97;;;21.49;39.28
62544;BME280;48597;49.030;1.822;2023-03-25T03:48:22;100032.41;;;21.51;39.17
62544;BME280;48597;49.030;1.822;2023-03-25T03:50:54;100046.75;;;21.51;39.48
62544;BME280;48597;49.030;1.822;2023-03-25T03:53:32;100039.75;;;21.52;39.31
62544;BME280;48597;49.030;1.822;2023-03-25T03:56:20;100036.09;;;21.51;39.31
62544;BME280;48597;49.030;1.822;2023-03-25T03:58:49;100047.56;;;21.51;39.18
62544;BME280;48597;49.030;1.822;2023-03-25T04:01:34;100049.94;;;21.53;38.93
62544;BME280;48597;49.030;1.822;2023-03-25T04:04:05;100052.00;;;21.52;39.35
62544;BME280;48597;49.030;1.822;2023-03-25T04:09:07;100053.13;;;21.55;39.26
62544;BME280;48597;49.030;1.822;2023-03-25T04:11:43;100060.44;;;21.56;38.89
62544;BME280;48597;49.030;1.822;2023-03-25T04:14:12;100053.91;;;21.55;39.41
62544;BME280;48597;49.030;1.822;2023-03-25T04:16:38;100059.94;;;21.57;39.39
62544;BME280;48597;49.030;1.822;2023-03-25T04:19:04;100055.81;;;21.58;39.04
62544;BME280;48597;49.030;1.822;2023-03-25T04:21:30;100055.00;;;21.58;39.24
62544;BME280;48597;49.030;1.822;2023-03-25T04:23:56;100059.94;;;21.57;39.13
62544;BME280;48597;49.030;1.822;2023-03-25T04:26:26;100064.72;;;21.60;39.01
62544;BME280;48597;49.030;1.822;2023-03-25T04:28:55;100068.88;;;21.59;39.31
62544;BME280;48597;49.030;1.822;2023-03-25T04:31:23;100068.38;;;21.61;39.28
62544;BME280;48597;49.030;1.822;2023-03-25T04:33:50;100080.66;;;21.61;39.13
62544;BME280;48597;49.030;1.822;2023-03-25T04:36:16;100081.94;;;21.60;39.08
62544;BME280;48597;49.030;1.822;2023-03-25T04:38:41;100083.53;;;21.61;39.14
62544;BME280;48597;49.030;1.822;2023-03-25T04:41:11;100087.19;;;21.62;39.03
62544;BME280;48597;49.030;1.822;2023-03-25T04:43:38;100081.44;;;21.62;39.01
62544;BME280;48597;49.030;1.822;2023-03-25T04:46:05;100090.84;;;21.62;39.27
62544;BME280;48597;49.030;1.822;2023-03-25T04:48:34;100097.38;;;21.63;38.78
62544;BME280;48597;49.030;1.822;2023-03-25T04:51:06;100098.19;;;21.63;39.05
62544;BME280;48597;49.030;1.822;2023-03-25T04:53:35;100104.72;;;21.64;39.25
62544;BME280;48597;49.030;1.822;2023-03-25T04:56:01;100114.13;;;21.64;39.16
62544;BME280;48597;49.030;1.822;2023-03-25T04:58:26;100109.66;;;21.63;38.78
62544;BME280;48597;49.030;1.822;2023-03-25T05:00:53;100121.91;;;21.64;38.90
62544;BME280;48597;49.030;1.822;2023-03-25T05:03:18;100119.06;;;21.64;38.82
62544;BME280;48597;49.030;1.822;2023-03-25T05:05:52;100124.31;;;21.65;38.99
62544;BME280;48597;49.030;1.822;2023-03-25T05:08:18;100129.25;;;21.65;38.82
62544;BME280;48597;49.030;1.822;2023-03-25T05:10:46;100130.06;;;21.65;38.82
62544;BME280;48597;49.030;1.822;2023-03-25T05:13:11;100136.59;;;21.66;39.08
62544;BME280;48597;49.030;1.822;2023-03-25T05:15:37;100132.91;;;21.65;38.90
62544;BME280;48597;49.030;1.822;2023-03-25T05:18:11;100136.59;;;21.66;39.06
62544;BME280;48597;49.030;1.822;2023-03-25T05:20:39;100136.59;;;21.66;38.98
62544;BME280;48597;49.030;1.822;2023-03-25T05:23:10;100150.44;;;21.67;38.90
62544;BME280;48597;49.030;1.822;2023-03-25T05:25:48;100154.59;;;21.66;38.97
62544;BME280;48597;49.030;1.822;2023-03-25T05:28:15;100145.97;;;21.66;39.02
62544;BME280;48597;49.030;1.822;2023-03-25T05:30:43;100146.78;;;21.67;39.06
62544;BME280;48597;49.030;1.822;2023-03-25T05:33:12;100148.84;;;21.66;39.08
62544;BME280;48597;49.030;1.822;2023-03-25T05:35:40;100165.25;;;21.66;38.82
62544;BME280;48597;49.030;1.822;2023-03-25T05:38:06;100161.91;;;21.67;38.87
62544;BME280;48597;49.030;1.822;2023-03-25T05:40:36;100166.84;;;21.67;39.01
62544;BME280;48597;49.030;1.822;2023-03-25T05:43:02;100166.84;;;21.67;39.05
62544;BME280;48597;49.030;1.822;2023-03-25T05:45:28;100171.78;;;21.66;39.07
62544;BME280;48597;49.030;1.822;2023-03-25T05:47:54;100171.78;;;21.66;38.61
62544;BME280;48597;49.030;1.822;2023-03-25T05:50:19;100176.25;;;21.67;38.83
62544;BME280;48597;49.030;1.822;2023-03-25T05:52:46;100175.75;;;21.69;38.95
62544;BME280;48597;49.030;1.822;2023-03-25T05:55:19;100174.19;;;21.68;38.79
62544;BME280;48597;49.030;1.822;2023-03-25T05:57:45;100179.91;;;21.68;39.02
62544;BME280;48597;49.030;1.822;2023-03-25T06:00:14;100185.66;;;21.68;38.87
62544;BME280;48597;49.030;1.822;2023-03-25T06:02:41;100183.56;;;21.68;38.63
62544;BME280;48597;49.030;1.822;2023-03-25T06:05:08;100185.16;;;21.69;38.65
62544;BME280;48597;49.030;1.822;2023-03-25T06:07:35;100182.28;;;21.69;38.75
62544;BME280;48597;49.030;1.822;2023-03-25T06:10:03;100180.69;;;21.68;38.81
62544;BME280;48597;49.030;1.822;2023-03-25T06:12:30;100194.56;;;21.70;38.58
62544;BME280;48597;49.030;1.822;2023-03-25T06:14:57;100183.56;;;21.68;38.68
62544;BME280;48597;49.030;1.822;2023-03-25T06:17:23;100192.16;;;21.68;38.70
62544;BME280;48597;49.030;1.822;2023-03-25T06:19:52;100192.97;;;21.69;38.68
62544;BME280;48597;49.030;1.822;2023-03-25T06:22:18;100196.63;;;21.69;38.74
62544;BME280;48597;49.030;1.822;2023-03-25T06:24:46;100201.56;;;21.69;38.63
62544;BME280;48597;49.030;1.822;2023-03-25T06:27:16;100222.75;;;21.71;38.85
62544;BME280;48597;49.030;1.822;2023-03-25T06:29:43;100217.50;;;21.70;38.74
62544;BME280;48597;49.030;1.822;2023-03-25T06:32:11;100221.97;;;21.71;38.80
62544;BME280;48597;49.030;1.822;2023-03-25T06:34:37;100228.50;;;21.71;38.60
62544;BME280;48597;49.030;1.822;2023-03-25T06:37:04;100226.09;;;21.70;38.98
62544;BME280;48597;49.030;1.822;2023-03-25T06:39:30;100239.19;;;21.71;38.72
62544;BME280;48597;49.030;1.822;2023-03-25T06:41:57;100239.19;;;21.71;38.51
62544;BME280;48597;49.030;1.822;2023-03-25T06:44:23;100242.38;;;21.73;38.71
62544;BME280;48597;49.030;1.822;2023-03-25T06:46:49;100241.56;;;21.72;38.42
62544;BME280;48597;49.030;1.822;2023-03-25T06:49:14;100247.31;;;21.72;38.56
62544;BME280;48597;49.030;1.822;2023-03-25T06:51:40;100243.16;;;21.73;38.72
62544;BME280;48597;49.030;1.822;2023-03-25T06:54:05;100240.28;;;21.73;38.69
62544;BME280;48597;49.030;1.822;2023-03-25T06:56:30;100240.28;;;21.73;38.59
62544;BME280;48597;49.030;1.822;2023-03-25T06:58:56;100257.50;;;21.73;38.75
62544;BME280;48597;49.030;1.822;2023-03-25T07:01:21;100247.63;;;21.74;38.61
62544;BME280;48597;49.030;1.822;2023-03-25T07:03:47;100248.44;;;21.75;38.54
62544;BME280;48597;49.030;1.822;2023-03-25T07:06:17;100250.50;;;21.74;38.63
62544;BME280;48597;49.030;1.822;2023-03-25T07:08:43;100250.50;;;21.74;38.76
62544;BME280;48597;49.030;1.822;2023-03-25T07:11:09;100251.28;;;21.75;38.74
62544;BME280;48597;49.030;1.822;2023-03-25T07:13:36;100252.88;;;21.76;38.58
62544;BME280;48597;49.030;1.822;2023-03-25T07:16:02;100256.56;;;21.77;38.70
62544;BME280;48597;49.030;1.822;2023-03-25T07:18:28;100251.63;;;21.77;38.61
62544;BME280;48597;49.030;1.822;2023-03-25T07:20:53;100247.16;;;21.76;38.60
62544;BME280;48597;49.030;1.822;2023-03-25T07:23:19;100257.34;;;21.77;38.38
62544;BME280;48597;49.030;1.822;2023-03-25T07:25:44;100249.88;;;21.80;38.54
62544;BME280;48597;49.030;1.822;2023-03-25T07:28:10;100256.88;;;21.79;38.62
62544;BME280;48597;49.030;1.822;2023-03-25T07:30:35;100261.34;;;21.80;38.35
62544;BME280;48597;49.030;1.822;2023-03-25T07:33:00;100255.91;;;21.82;38.37
62544;BME280;48597;49.030;1.822;2023-03-25T07:35:26;100275.97;;;21.82;38.66
62544;BME280;48597;49.030;1.822;2023-03-25T07:37:51;100275.19;;;21.81;38.47
62544;BME280;48597;49.030;1.822;2023-03-25T07:40:17;100279.16;;;21.84;38.39
62544;BME280;48597;49.030;1.822;2023-03-25T07:42:43;100273.28;;;21.87;38.20
62544;BME280;48597;49.030;1.822;2023-03-25T07:45:09;100283.00;;;21.90;38.31
62544;BME280;48597;49.030;1.822;2023-03-25T07:47:35;100285.41;;;21.91;38.09
62544;BME280;48597;49.030;1.822;2023-03-25T07:50:00;100289.53;;;21.90;38.11
62544;BME280;48597;49.030;1.822;2023-03-25T07:52:26;100294.97;;;21.88;38.14
62544;BME280;48597;49.030;1.822;2023-03-25T07:54:51;100301.81;;;21.91;38.16
62544;BME280;48597;49.030;1.822;2023-03-25T07:57:16;100305.97;;;21.90;38.17
62544;BME280;48597;49.030;1.822;2023-03-25T07:59:42;100312.19;;;21.88;38.29
62544;BME280;48597;49.030;1.822;2023-03-25T08:02:11;100305.47;;;21.91;38.41
62544;BME280;48597;49.030;1.822;2023-03-25T08:04:37;100311.38;;;21.97;38.21
62544;BME280;48597;49.030;1.822;2023-03-25T08:07:02;100317.28;;;21.93;38.00
62544;BME280;48597;49.030;1.822;2023-03-25T08:09:28;100310.25;;;21.94;38.19
62544;BME280;48597;49.030;1.822;2023-03-25T08:11:53;100320.97;;;21.94;37.99
62544;BME280;48597;49.030;1.822;2023-03-25T08:14:19;100309.94;;;21.92;38.19
62544;BME280;48597;49.030;1.822;2023-03-25T08:16:44;100315.69;;;21.92;38.31
62544;BME280;48597;49.030;1.822;2023-03-25T08:19:10;100311.03;;;21.95;38.21
62544;BME280;48597;49.030;1.822;2023-03-25T08:21:36;100324.44;;;21.98;38.02
62544;BME280;48597;49.030;1.822;2023-03-25T08:24:01;100314.44;;;22.02;38.07
62544;BME280;48597;49.030;1.822;2023-03-25T08:26:30;100325.13;;;22.02;38.17
62544;BME280;48597;49.030;1.822;2023-03-25T08:28:56;100317.47;;;21.99;38.30
62544;BME280;48597;49.030;1.822;2023-03-25T08:31:26;100330.19;;;21.98;38.04
62544;BME280;48597;49.030;1.822;2023-03-25T08:33:56;100326.06;;;21.99;37.99
62544;BME280;48597;49.030;1.822;2023-03-25T08:36:21;100323.19;;;21.99;37.76
62544;BME280;48597;49.030;1.822;2023-03-25T08:38:48;100325.25;;;21.98;37.90
62544;BME280;48597;49.030;1.822;2023-03-25T08:41:14;100322.38;;;21.98;38.11
62544;BME280;48597;49.030;1.822;2023-03-25T08:43:40;100321.56;;;21.98;38.23
62544;BME280;48597;49.030;1.822;2023-03-25T08:46:05;100317.91;;;21.97;37.94
62544;BME280;48597;49.030;1.822;2023-03-25T08:48:31;100319.50;;;21.98;37.98
62544;BME280;48597;49.030;1.822;2023-03-25T08:50:56;100332.59;;;21.99;38.13
62544;BME280;48597;49.030;1.822;2023-03-25T08:53:22;100329.25;;;22.01;38.18
62544;BME280;48597;49.030;1.822;2023-03-25T08:55:56;100324.78;;;22.00;38.03
62544;BME280;48597;49.030;1.822;2023-03-25T08:58:23;100345.31;;;21.98;38.05
62544;BME280;48597;49.030;1.822;2023-03-25T09:00:50;100342.47;;;21.98;38.22
62544;BME280;48597;49.030;1.822;2023-03-25T09:03:19;100332.25;;;21.97;37.74
62544;BME280;48597;49.030;1.822;2023-03-25T09:05:45;100329.38;;;21.97;38.00
62544;BME280;48597;49.030;1.822;2023-03-25T09:08:11;100338.78;;;21.98;37.95
62544;BME280;48597;49.030;1.822;2023-03-25T09:10:36;100337.19;;;21.97;38.20
62544;BME280;48597;49.030;1.822;2023-03-25T09:13:02;100348.19;;;21.98;38.20
62544;BME280;48597;49.030;1.822;2023-03-25T09:15:27;100353.13;;;21.98;38.08
62544;BME280;48597;49.030;1.822;2023-03-25T09:17:53;100330.19;;;21.98;38.06
62544;BME280;48597;49.030;1.822;2023-03-25T09:20:18;100349.81;;;21.99;37.88
62544;BME280;48597;49.030;1.822;2023-03-25T09:22:44;100342.81;;;22.00;37.78
62544;BME280;48597;49.030;1.822;2023-03-25T09:25:10;100350.63;;;22.00;38.12
62544;BME280;48597;49.030;1.822;2023-03-25T09:27:36;100355.56;;;21.99;38.00
62544;BME280;48597;49.030;1.822;2023-03-25T09:30:02;100340.41;;;21.99;38.08
62544;BME280;48597;49.030;1.822;2023-03-25T09:32:28;100368.28;;;21.98;38.07
62544;BME280;48597;49.030;1.822;2023-03-25T09:34:53;100358.88;;;21.98;38.14
62544;BME280;48597;49.030;1.822;2023-03-25T09:37:19;100370.34;;;21.98;38.23
62544;BME280;48597;49.030;1.822;2023-03-25T09:39:44;100367.03;;;21.99;38.22
62544;BME280;48597;49.030;1.822;2023-03-25T09:42:30;100386.34;;;21.99;37.97
62544;BME280;48597;49.030;1.822;2023-03-25T09:45:05;100377.72;;;21.99;38.12
62544;BME280;48597;49.030;1.822;2023-03-25T09:47:37;100371.97;;;21.99;37.99
62544;BME280;48597;49.030;1.822;2023-03-25T09:50:09;100364.16;;;21.99;38.22
62544;BME280;48597;49.030;1.822;2023-03-25T09:53:01;100362.09;;;22.00;38.16
62544;BME280;48597;49.030;1.822;2023-03-25T09:55:32;100362.09;;;22.00;38.14
62544;BME280;48597;49.030;1.822;2023-03-25T10:01:13;100370.72;;;22.00;37.98
62544;BME280;48597;49.030;1.822;2023-03-25T10:12:08;100403.88;;;22.01;38.22
62544;BME280;48597;49.030;1.822;2023-03-25T10:14:55;100390.81;;;22.00;38.39
62544;BME280;48597;49.030;1.822;2023-03-25T10:25:51;100411.69;;;22.00;38.11
62544;BME280;48597;49.030;1.822;2023-03-25T10:28:19;100408.03;;;22.00;38.39
62544;BME280;48597;49.030;1.822;2023-03-25T10:30:50;100405.47;;;22.02;38.20
62544;BME280;48597;49.030;1.822;2023-03-25T10:33:50;100390.81;;;22.00;38.08
62544;BME280;48597;49.030;1.822;2023-03-25T10:36:17;100385.84;;;22.00;38.37
62544;BME280;48597;49.030;1.822;2023-03-25T10:38:49;100389.53;;;22.01;38.46
62544;BME280;48597;49.030;1.822;2023-03-25T10:41:26;100385.84;;;22.00;38.50
62544;BME280;48597;49.030;1.822;2023-03-25T10:43:54;100387.94;;;22.00;38.47
62544;BME280;48597;49.030;1.822;2023-03-25T10:46:46;100414.56;;;22.00;38.43
62544;BME280;48597;49.030;1.822;2023-03-25T10:49:17;100400.22;;;22.00;38.42
62544;BME280;48597;49.030;1.822;2023-03-25T10:51:43;100405.47;;;22.02;38.27
62544;BME280;48597;49.030;1.822;2023-03-25T10:54:11;100403.88;;;22.01;38.26
62544;BME280;48597;49.030;1.822;2023-03-25T10:56:44;100405.94;;;22.00;38.08
62544;BME280;48597;49.030;1.822;2023-03-25T10:59:39;100412.97;;;21.99;38.49
62544;BME280;48597;49.030;1.822;2023-03-25T11:02:18;100428.09;;;22.00;39.22
62544;BME280;48597;49.030;1.822;2023-03-25T11:04:46;100423.97;;;22.01;40.18
62544;BME280;48597;49.030;1.822;2023-03-25T11:07:22;100421.91;;;22.01;40.41
62544;BME280;48597;49.030;1.822;2023-03-25T11:09:50;100418.22;;;22.01;40.58
62544;BME280;48597;49.030;1.822;2023-03-25T11:12:19;100410.88;;;22.00;40.67
62544;BME280;48597;49.030;1.822;2023-03-25T11:14:53;100413.75;;;22.00;41.16
62544;BME280;48597;49.030;1.822;2023-03-25T11:17:20;100412.59;;;21.97;41.13
62544;BME280;48597;49.030;1.822;2023-03-25T11:19:54;100403.19;;;21.97;41.03
62544;BME280;48597;49.030;1.822;2023-03-25T11:22:25;100413.06;;;21.96;41.09
62544;BME280;48597;49.030;1.822;2023-03-25T11:24:55;100410.06;;;21.90;40.82
62544;BME280;48597;49.030;1.822;2023-03-25T11:27:26;100405.13;;;21.91;41.55
62544;BME280;48597;49.030;1.822;2023-03-25T11:29:54;100405.25;;;21.87;40.93
62544;BME280;48597;49.030;1.822;2023-03-25T11:32:35;100415.94;;;21.87;41.61
62544;BME280;48597;49.030;1.822;2023-03-25T11:35:16;100404.94;;;21.85;41.59
62544;BME280;48597;49.030;1.822;2023-03-25T11:37:46;100408.28;;;21.84;41.79
62544;BME280;48597;49.030;1.822;2023-03-25T11:40:17;100421.03;;;21.83;41.84
62544;BME280;48597;49.030;1.822;2023-03-25T11:42:44;100416.88;;;21.84;41.84
62544;BME280;48597;49.030;1.822;2023-03-25T11:45:26;100401.41;;;21.81;41.76
62544;BME280;48597;49.030;1.822;2023-03-25T11:47:57;100404.78;;;21.80;41.93
62544;BME280;48597;49.030;1.822;2023-03-25T11:50:27;100406.06;;;21.79;41.96
62544;BME280;48597;49.030;1.822;2023-03-25T11:52:56;100410.19;;;21.78;42.05
62544;BME280;48597;49.030;1.822;2023-03-25T11:55:31;100412.75;;;21.75;42.01
62544;BME280;48597;49.030;1.822;2023-03-25T11:57:59;100412.41;;;21.73;41.94
62544;BME280;48597;49.030;1.822;2023-03-25T12:03:02;100410.81;;;21.72;41.85
62544;BME280;48597;49.030;1.822;2023-03-25T12:05:29;100403.16;;;21.69;42.04
62544;BME280;48597;49.030;1.822;2023-03-25T12:08:21;100402.84;;;21.67;41.72
62544;BME280;48597;49.030;1.822;2023-03-25T12:10:52;100404.44;;;21.68;41.94
62544;BME280;48597;49.030;1.822;2023-03-25T12:21:38;100407.59;;;21.61;41.92
62544;BME280;48597;49.030;1.822;2023-03-25T12:29:42;100411.09;;;21.56;42.34
62544;BME280;48597;49.030;1.822;2023-03-25T12:37:35;100389.59;;;21.52;42.36
62544;BME280;48597;49.030;1.822;2023-03-25T12:40:20;100401.84;;;21.52;41.90
62544;BME280;48597;49.030;1.822;2023-03-25T12:43:02;100378.91;;;21.52;42.16
62544;BME280;48597;49.030;1.822;2023-03-25T13:05:13;100376.00;;;21.43;42.10
62544;BME280;48597;49.030;1.822;2023-03-25T13:07:46;100383.03;;;21.42;42.81
62544;BME280;48597;49.030;1.822;2023-03-25T13:10:19;100369.47;;;21.43;42.62
62544;BME280;48597;49.030;1.822;2023-03-25T13:12:56;100360.56;;;21.41;42.70
62544;BME280;48597;49.030;1.822;2023-03-25T13:15:25;100362.63;;;21.40;43.02
62544;BME280;48597;49.030;1.822;2023-03-25T13:18:26;100375.38;;;21.39;42.53
62544;BME280;48597;49.030;1.822;2023-03-25T13:21:05;100359.44;;;21.38;42.90
62544;BME280;48597;49.030;1.822;2023-03-25T13:23:35;100353.38;;;21.36;42.83
62544;BME280;48597;49.030;1.822;2023-03-25T13:26:08;100375.53;;;21.35;43.15
62544;BME280;48597;49.030;1.822;2023-03-25T13:28:48;100359.59;;;21.34;43.01
62544;BME280;48597;49.030;1.822;2023-03-25T13:31:18;100360.84;;;21.33;43.16
62544;BME280;48597;49.030;1.822;2023-03-25T13:36:41;100365.47;;;21.31;43.27
62544;BME280;48597;49.030;1.822;2023-03-25T13:39:24;100357.31;;;21.29;43.29
62544;BME280;48597;49.030;1.822;2023-03-25T13:42:03;100361.50;;;21.28;43.36
62544;BME280;48597;49.030;1.822;2023-03-25T13:44:37;100357.03;;;21.27;43.36
62544;BME280;48597;49.030;1.822;2023-03-25T13:47:17;100359.91;;;21.27;43.37
62544;BME280;48597;49.030;1.822;2023-03-25T13:50:43;100371.81;;;21.26;43.39
62544;BME280;48597;49.030;1.822;2023-03-25T13:52:47;100365.28;;;21.25;43.20
62544;BME280;48597;49.030;1.822;2023-03-25T13:55:19;100372.63;;;21.26;43.33
62544;BME280;48597;49.030;1.822;2023-03-25T14:04:17;100381.69;;;21.25;43.38
62544;BME280;48597;49.030;1.822;2023-03-25T14:12:44;100377.38;;;21.20;43.33
62544;BME280;48597;49.030;1.822;2023-03-25T14:15:16;100377.00;;;21.18;43.26
62544;BME280;48597;49.030;1.822;2023-03-25T14:17:44;100380.34;;;21.17;43.51
62544;BME280;48597;49.030;1.822;2023-03-25T14:20:37;100368.56;;;21.15;43.38
62544;BME280;48597;49.030;1.822;2023-03-25T14:23:06;100370.31;;;21.12;43.44
62544;BME280;48597;49.030;1.822;2023-03-25T14:25:39;100362.50;;;21.13;43.19
62544;BME280;48597;49.030;1.822;2023-03-25T14:28:10;100369.03;;;21.13;43.21
62544;BME280;48597;49.030;1.822;2023-03-25T14:30:37;100389.09;;;21.13;43.22
62544;BME280;48597;49.030;1.822;2023-03-25T14:33:04;100390.84;;;21.11;43.00
62544;BME280;48597;49.030;1.822;2023-03-25T14:38:10;100386.38;;;21.10;43.16
62544;BME280;48597;49.030;1.822;2023-03-25T14:43:26;100392.91;;;21.10;43.17
62544;BME280;48597;49.030;1.822;2023-03-25T14:48:48;100368.38;;;21.09;43.26
62544;BME280;48597;49.030;1.822;2023-03-25T14:53:40;100365.84;;;21.11;43.01
62544;BME280;48597;49.030;1.822;2023-03-25T14:56:17;100365.84;;;21.11;43.07
62544;BME280;48597;49.030;1.822;2023-03-25T14:58:43;100363.78;;;21.12;43.17
62544;BME280;48597;49.030;1.822;2023-03-25T15:01:13;100373.19;;;21.12;43.03
62544;BME280;48597;49.030;1.822;2023-03-25T15:03:42;100369.03;;;21.13;43.19
62544;BME280;48597;49.030;1.822;2023-03-25T15:06:14;100362.03;;;21.14;42.87
62544;BME280;48597;49.030;1.822;2023-03-25T15:08:49;100337.06;;;21.15;42.99
62544;BME280;48597;49.030;1.822;2023-03-25T15:11:24;100354.25;;;21.15;42.94